Reggio Calabria, Italy

11:14 AM CEST on August 05, 2015 (GMT +0200)
Mili San Marco | | Change Station
CLOSE
Current Station
Personal Weather Station
Location: Mili San Marco, ME/IT
Elevation: 167 ft
Nearby Weather Stations

Elev 167 ft 38.12 °N, 15.51 °E | Updated 4 minutes ago

Scattered Clouds
Scattered Clouds
90.0 °F
Feels Like 97 °F
N
3.0
Wind Variable Wind from WNW
Gusts 7.0 mph

Today
High -- | Low -- °F
--% Chance of Precip.
Yesterday
High -- | Low -- °F
Precip. -- in
6:03 AM 8:03 PM
Waning Gibbous, 69% visible
Pressure 29.92 in
Visibility 6.2 miles
Clouds Few 2500 ft
Scattered Clouds 3000 ft
Heat Index 97 °F
Dew Point 72 °F
Humidity 55%
Rainfall 0.00 in
Snow Depth Not available.
UV 7 out of 12
Pollen Not available.
Air Quality Not available.
Flu Activity Not available.
METAR LICF 050855Z 35007KT 9999 FEW025TCU SCT030 30/23 Q1013 RMK SCT QUK 1 QUL 0 VIS MAR 16 KM MON CLD CIME NC VIS MIN 9999

More Conditions Fewer Conditions

Pressure 29.92 in
Visibility 6.2 miles
Clouds Few 2500 ft
Scattered Clouds 3000 ft
Heat Index 97 °F
Dew Point 72 °F
Humidity 55%
Rainfall 0.00 in
Snow Depth Not available.
UV 7 out of 12
Pollen Not available.
Air Quality Not available.
Flu Activity Not available.
METAR LICF 050855Z 35007KT 9999 FEW025TCU SCT030 30/23 Q1013 RMK SCT QUK 1 QUL 0 VIS MAR 16 KM MON CLD CIME NC VIS MIN 9999

More Conditions Fewer Conditions

10-Day Weather Forecast

×

Almanac

Astronomy

Aug. 05, 2015 Rise Set
Actual Time
Civil Twilight
Nautical Twilight
Astronomical Twilight
Moon
Length of Visible Light
Length of Day
Tomorrow will be .
, % of the Moon is Illuminated

Today's Extremes

Country Highs Country Lows

Community

WunderPhotos

Upload Photos

1,844,105 photos uploaded!

WunderBlogs® & News

Nearby

Air Quality

  Air Quality AQ Index Pollutant
Not available.

Snow Depth

Station Depth Elevation

Earthquake Activity

City Distance Mag. Time & Date
Minimum magnitude displayed is 2.5.

Coastal Water Temperatures

Place Temperature

Stations

Nearby Weather Stations

Station Location Temp. Windchill Dew Point Humidity Wind Precip. Elev Updated Type